Time;durP1;ratioP1;P1;durP2;ratioP2;P2;SDS_P1;SDS_P2;PMS_P1;PMS_P2;Temp;Humidity;BMP_temperature;BMP_pressure;BME280_temperature;BME280_humidity;BME280_pressure;Samples;Min_cycle;Max_cycle;Signal;HPM_P1;HPM_P2
2022/04/22 00:00:38;;;;;;;5.10;3.00;;;11.60;99.90;;;;;;5008923;28;20660;-64
2022/04/22 00:03:07;;;;;;;6.57;3.00;;;11.50;99.90;;;;;;5002953;28;20174;-64
2022/04/22 00:05:34;;;;;;;9.00;3.10;;;11.50;99.90;;;;;;5010991;28;20866;-65
2022/04/22 00:08:00;;;;;;;8.00;3.53;;;11.50;99.90;;;;;;5011652;28;20669;-66
2022/04/22 00:10:26;;;;;;;5.33;3.60;;;11.50;99.90;;;;;;5011315;28;20178;-58
2022/04/22 00:12:52;;;;;;;6.10;3.27;;;11.50;99.90;;;;;;5010082;28;20179;-63
2022/04/22 00:15:17;;;;;;;6.27;3.53;;;11.40;99.90;;;;;;5011151;28;20182;-63
2022/04/22 00:17:43;;;;;;;9.40;3.67;;;11.40;99.90;;;;;;5011071;28;20183;-63
2022/04/22 00:20:11;;;;;;;8.00;3.50;;;11.40;99.90;;;;;;5010531;28;20693;-63
2022/04/22 00:22:41;;;;;;;9.43;3.83;;;11.30;99.90;;;;;;5010721;28;20295;-63
2022/04/22 00:25:09;;;;;;;8.20;3.80;;;11.30;99.90;;;;;;5010130;28;20206;-63
2022/04/22 00:27:35;;;;;;;7.90;3.80;;;11.20;99.90;;;;;;5010103;28;20241;-63
2022/04/22 00:30:02;;;;;;;10.33;4.23;;;11.20;99.90;;;;;;5011602;28;20182;-63
2022/04/22 00:32:28;;;;;;;6.17;4.13;;;11.20;99.90;;;;;;5010996;28;20224;-64
2022/04/22 00:34:54;;;;;;;7.60;4.00;;;11.20;99.90;;;;;;5010256;28;20174;-63
2022/04/22 00:37:19;;;;;;;8.87;4.17;;;11.20;99.90;;;;;;4993683;28;20687;-63
2022/04/22 00:39:45;;;;;;;9.13;3.83;;;11.00;99.90;;;;;;5010063;28;20265;-63
2022/04/22 00:42:11;;;;;;;8.53;4.33;;;11.00;99.90;;;;;;5010398;28;20185;-63
2022/04/22 00:44:37;;;;;;;9.63;4.20;;;11.00;99.90;;;;;;5009903;28;20228;-63
2022/04/22 00:47:04;;;;;;;7.10;4.57;;;11.00;99.90;;;;;;5007028;28;20190;-63
2022/04/22 00:49:30;;;;;;;10.27;4.40;;;10.90;99.90;;;;;;5010939;28;20179;-63
2022/04/22 00:51:56;;;;;;;11.10;4.10;;;10.90;99.90;;;;;;5010284;28;20692;-62
2022/04/22 00:54:22;;;;;;;10.77;4.60;;;10.90;99.90;;;;;;5010464;28;20179;-62
2022/04/22 00:56:50;;;;;;;8.40;5.10;;;10.80;99.90;;;;;;5010723;28;20252;-63
2022/04/22 00:59:16;;;;;;;7.03;4.77;;;10.80;99.90;;;;;;5010739;28;20183;-62
2022/04/22 01:01:42;;;;;;;10.87;4.73;;;10.80;99.90;;;;;;5009514;28;20178;-63
2022/04/22 01:09:48;;;;;;;9.90;4.00;;;10.70;99.90;;;;;;5014096;28;20656;-62
2022/04/22 01:12:15;;;;;;;7.53;4.27;;;10.70;99.90;;;;;;5014558;28;20178;-63
2022/04/22 01:14:41;;;;;;;7.40;4.07;;;10.60;99.90;;;;;;5015198;28;20617;-63
2022/04/22 01:17:08;;;;;;;8.40;4.00;;;10.60;99.90;;;;;;5013959;28;20186;-63
2022/04/22 01:19:35;;;;;;;6.30;3.70;;;10.60;99.90;;;;;;5012842;28;20235;-62
2022/04/22 01:22:02;;;;;;;6.07;3.97;;;10.60;99.90;;;;;;5014610;28;20189;-63
2022/04/22 01:24:28;;;;;;;10.17;4.37;;;10.60;99.90;;;;;;5014250;28;20182;-63
2022/04/22 01:26:55;;;;;;;6.53;3.87;;;10.60;99.90;;;;;;5013892;28;20214;-62
2022/04/22 01:29:21;;;;;;;10.63;4.00;;;10.50;99.90;;;;;;5014804;28;20163;-63
2022/04/22 01:31:48;;;;;;;6.00;3.83;;;10.50;99.90;;;;;;5013419;28;20179;-63
2022/04/22 01:34:14;;;;;;;7.80;3.90;;;10.50;99.90;;;;;;5013755;28;20241;-63
2022/04/22 01:36:40;;;;;;;10.17;4.20;;;10.40;99.90;;;;;;5012650;28;20525;-63
2022/04/22 01:39:06;;;;;;;7.87;3.90;;;10.40;99.90;;;;;;5011486;28;20233;-63
2022/04/22 01:41:31;;;;;;;12.73;4.70;;;10.40;99.90;;;;;;5013162;28;20175;-63
2022/04/22 01:43:57;;;;;;;8.10;4.13;;;10.30;99.90;;;;;;5013605;28;20182;-64
2022/04/22 01:46:23;;;;;;;12.40;4.43;;;10.30;99.90;;;;;;5013409;28;20279;-64
2022/04/22 01:48:49;;;;;;;8.43;4.20;;;10.30;99.90;;;;;;5013960;28;20266;-64
2022/04/22 01:51:15;;;;;;;10.10;5.37;;;10.20;99.90;;;;;;5012741;28;20214;-63
2022/04/22 01:53:41;;;;;;;7.70;5.03;;;10.10;99.90;;;;;;4997846;28;20178;-64
2022/04/22 01:56:07;;;;;;;14.90;5.80;;;10.00;99.90;;;;;;5013636;28;20694;-63
2022/04/22 01:58:33;;;;;;;12.37;5.03;;;10.00;99.90;;;;;;5013647;28;20178;-63
2022/04/22 02:00:59;;;;;;;8.67;5.07;;;9.90;99.90;;;;;;5014461;28;20166;-63
2022/04/22 02:03:25;;;;;;;9.23;5.33;;;9.90;99.90;;;;;;5013255;28;20316;-63
2022/04/22 02:05:51;;;;;;;10.43;5.40;;;9.90;99.90;;;;;;5013304;28;20333;-63
2022/04/22 02:08:17;;;;;;;8.47;4.50;;;9.80;99.90;;;;;;5013522;28;20179;-63
2022/04/22 02:10:43;;;;;;;6.53;4.47;;;9.80;99.90;;;;;;5012247;28;20182;-63
2022/04/22 02:13:09;;;;;;;11.67;5.77;;;9.80;99.90;;;;;;5013540;28;20179;-63
2022/04/22 02:15:35;;;;;;;11.90;5.27;;;9.70;99.90;;;;;;5012486;28;20190;-62
2022/04/22 02:18:01;;;;;;;11.33;4.93;;;9.60;99.90;;;;;;5012770;28;20205;-63
2022/04/22 02:23:02;;;;;;;8.83;5.20;;;9.50;99.90;;;;;;3912033;23;20253;-63
2022/04/22 02:25:28;;;;;;;9.53;5.27;;;9.50;99.90;;;;;;5005320;28;20221;-63
2022/04/22 02:30:39;;;;;;;8.97;5.17;;;9.40;99.90;;;;;;5013348;28;20217;-63
2022/04/22 02:33:05;;;;;;;9.67;4.90;;;9.40;99.90;;;;;;5013306;28;20211;-65
2022/04/22 02:35:30;;;;;;;13.07;5.40;;;9.30;99.90;;;;;;5010786;28;20663;-64
2022/04/22 02:37:56;;;;;;;9.43;5.37;;;9.30;99.90;;;;;;5013696;28;20210;-65
2022/04/22 02:45:51;;;;;;;9.93;5.07;;;9.20;99.90;;;;;;5012545;28;20212;-64
2022/04/22 02:48:17;;;;;;;8.47;5.17;;;9.10;99.90;;;;;;5013253;28;20166;-64
2022/04/22 02:50:43;;;;;;;13.57;5.50;;;9.00;99.90;;;;;;5013003;28;20667;-64
2022/04/22 02:53:08;;;;;;;7.97;4.77;;;9.10;99.90;;;;;;5012630;28;20174;-64
2022/04/22 02:55:40;;;;;;;13.27;5.53;;;9.00;99.90;;;;;;5011937;28;20182;-64
2022/04/22 02:58:06;;;;;;;9.77;5.23;;;9.00;99.90;;;;;;5012569;28;20206;-64
2022/04/22 03:00:33;;;;;;;12.07;5.17;;;9.00;99.90;;;;;;5011189;28;20190;-64
2022/04/22 03:02:59;;;;;;;8.03;5.10;;;8.70;99.90;;;;;;5002210;28;20170;-64
2022/04/22 03:05:24;;;;;;;11.53;5.67;;;9.00;99.90;;;;;;5012226;28;20221;-64
2022/04/22 03:07:50;;;;;;;8.47;5.10;;;8.90;99.90;;;;;;5012858;28;20181;-64
2022/04/22 03:10:17;;;;;;;9.43;5.20;;;8.90;99.90;;;;;;5011992;28;20683;-63
2022/04/22 03:12:43;;;;;;;11.83;5.73;;;8.90;99.90;;;;;;5012501;28;20171;-64
2022/04/22 03:15:09;;;;;;;12.67;5.47;;;8.90;99.90;;;;;;5012173;28;20175;-64
2022/04/22 03:17:35;;;;;;;10.40;6.07;;;8.80;99.90;;;;;;5012185;28;20174;-64
2022/04/22 03:20:00;;;;;;;12.60;5.50;;;8.80;99.90;;;;;;5010756;28;20221;-64
2022/04/22 03:22:26;;;;;;;9.53;5.67;;;8.80;99.90;;;;;;5010546;28;20228;-64
2022/04/22 03:24:52;;;;;;;11.43;5.57;;;8.80;99.90;;;;;;5011553;28;20225;-65
2022/04/22 03:27:18;;;;;;;11.50;5.40;;;8.70;99.90;;;;;;5010933;28;20732;-65
2022/04/22 03:29:43;;;;;;;9.50;5.67;;;8.80;99.90;;;;;;5012748;28;20258;-65
2022/04/22 03:32:12;;;;;;;11.83;5.83;;;8.80;99.90;;;;;;5011200;28;20637;-66
2022/04/22 03:34:38;;;;;;;10.37;5.60;;;8.80;99.90;;;;;;5010528;28;20178;-66
2022/04/22 03:37:04;;;;;;;12.77;6.13;;;8.80;99.90;;;;;;5011985;28;20273;-66
2022/04/22 03:39:30;;;;;;;15.90;6.40;;;8.80;99.90;;;;;;5011083;28;20190;-65
2022/04/22 03:41:56;;;;;;;15.97;6.10;;;8.70;99.90;;;;;;5011728;28;20218;-65
2022/04/22 03:44:21;;;;;;;9.73;5.27;;;8.70;99.90;;;;;;5011788;28;20635;-65
2022/04/22 03:46:47;;;;;;;12.13;5.80;;;8.70;99.90;;;;;;5010249;28;20210;-66
2022/04/22 03:49:13;;;;;;;10.03;5.77;;;8.70;99.90;;;;;;5011780;28;20199;-65
2022/04/22 03:51:39;;;;;;;10.43;6.30;;;8.70;99.90;;;;;;5011085;28;20281;-65
2022/04/22 03:54:04;;;;;;;11.50;6.07;;;8.60;99.90;;;;;;5010988;28;20285;-65
2022/04/22 03:59:19;;;;;;;13.03;5.93;;;8.60;99.90;;;;;;4984117;28;20179;-65
2022/04/22 04:01:44;;;;;;;10.80;6.13;;;8.50;99.90;;;;;;5010991;28;20171;-65
2022/04/22 04:04:11;;;;;;;12.10;6.53;;;8.50;99.90;;;;;;5011169;28;20183;-65
2022/04/22 04:06:37;;;;;;;13.40;6.70;;;8.50;99.90;;;;;;5011155;28;20578;-65
2022/04/22 04:17:15;;;;;;;10.43;6.93;;;8.40;99.90;;;;;;5011081;28;20189;-65
2022/04/22 04:25:10;;;;;;;13.37;7.00;;;8.50;99.90;;;;;;5011189;28;20264;-65
2022/04/22 04:27:36;;;;;;;14.33;7.33;;;8.50;99.90;;;;;;5008577;28;20182;-65
2022/04/22 04:30:06;;;;;;;11.10;6.60;;;8.50;99.90;;;;;;5011827;28;20202;-65
2022/04/22 04:32:32;;;;;;;14.43;7.47;;;8.50;99.90;;;;;;5010359;28;20174;-65
2022/04/22 04:34:57;;;;;;;11.37;7.17;;;8.60;99.90;;;;;;5010122;28;20182;-65
2022/04/22 04:37:23;;;;;;;12.47;7.53;;;8.60;99.90;;;;;;5009417;28;20595;-65
2022/04/22 04:39:49;;;;;;;15.27;8.03;;;8.50;99.90;;;;;;5010723;28;20244;-65
2022/04/22 04:42:15;;;;;;;14.23;8.23;;;8.50;99.90;;;;;;5009511;28;20183;-64
2022/04/22 04:44:41;;;;;;;12.87;7.93;;;8.50;99.90;;;;;;5009457;28;20174;-64
2022/04/22 04:47:07;;;;;;;17.20;8.37;;;8.50;99.90;;;;;;5010171;28;20559;-64
2022/04/22 04:49:33;;;;;;;17.67;8.57;;;8.50;99.90;;;;;;5011091;28;20240;-64
2022/04/22 04:51:58;;;;;;;14.23;8.37;;;8.40;99.90;;;;;;5009879;28;20572;-64
2022/04/22 04:54:24;;;;;;;16.23;9.13;;;8.50;99.90;;;;;;5010945;28;20177;-64
2022/04/22 04:56:53;;;;;;;15.93;8.57;;;8.40;99.90;;;;;;5010114;28;20576;-65
2022/04/22 04:59:19;;;;;;;17.27;9.00;;;8.40;99.90;;;;;;5006691;28;20543;-64
2022/04/22 05:01:45;;;;;;;18.17;9.40;;;8.40;99.90;;;;;;5006509;28;20320;-65
2022/04/22 05:04:11;;;;;;;16.30;9.30;;;8.50;99.90;;;;;;5010658;28;20277;-65
2022/04/22 05:06:37;;;;;;;15.90;8.80;;;8.50;99.90;;;;;;5010396;28;20293;-65
2022/04/22 05:09:02;;;;;;;17.00;9.47;;;8.50;99.90;;;;;;5010760;28;20293;-67
2022/04/22 05:11:28;;;;;;;13.13;9.43;;;8.50;99.90;;;;;;5010463;28;20171;-67
2022/04/22 05:13:54;;;;;;;20.60;10.20;;;8.40;99.90;;;;;;5011100;28;20178;-66
2022/04/22 05:16:20;;;;;;;20.43;10.90;;;8.50;99.90;;;;;;5010260;28;20269;-66
2022/04/22 05:18:45;;;;;;;16.43;10.53;;;8.50;99.90;;;;;;5009808;28;20182;-67
2022/04/22 05:21:11;;;;;;;18.47;10.57;;;8.50;99.90;;;;;;5009837;28;20182;-67
2022/04/22 05:23:37;;;;;;;21.43;11.10;;;8.50;99.90;;;;;;5009720;28;20222;-67
2022/04/22 05:26:04;;;;;;;22.37;11.83;;;8.50;99.90;;;;;;5010035;28;20578;-68
2022/04/22 05:28:30;;;;;;;19.40;11.97;;;8.60;99.90;;;;;;5009911;28;20183;-67
2022/04/22 05:33:40;;;;;;;20.73;11.40;;;8.60;99.90;;;;;;5010369;28;20193;-66
2022/04/22 05:36:06;;;;;;;23.87;12.97;;;8.60;99.90;;;;;;5010640;28;20257;-67
2022/04/22 05:38:34;;;;;;;23.37;13.47;;;8.70;99.90;;;;;;5010408;28;20178;-67
2022/04/22 05:41:00;;;;;;;23.83;13.90;;;8.70;99.90;;;;;;5009167;28;20179;-67
2022/04/22 05:43:26;;;;;;;24.60;13.83;;;8.70;99.90;;;;;;5009533;28;20301;-67
2022/04/22 05:45:52;;;;;;;24.50;13.83;;;8.70;99.90;;;;;;5009906;28;20218;-65
2022/04/22 05:48:17;;;;;;;24.73;14.70;;;8.70;99.90;;;;;;5009760;28;20544;-66
2022/04/22 05:50:43;;;;;;;24.83;15.17;;;8.80;99.90;;;;;;5010552;28;20261;-67
2022/04/22 05:53:09;;;;;;;33.47;15.37;;;8.80;99.90;;;;;;5010259;28;20848;-66
2022/04/22 05:55:35;;;;;;;26.53;15.77;;;8.80;99.90;;;;;;5013444;28;20244;-66
2022/04/22 05:58:01;;;;;;;28.73;16.33;;;8.90;99.90;;;;;;5012407;28;20656;-66
2022/04/22 06:00:30;;;;;;;30.73;16.70;;;8.90;99.90;;;;;;5012458;28;20281;-66
2022/04/22 06:02:56;;;;;;;29.97;17.23;;;8.90;99.90;;;;;;5013522;28;20209;-66
2022/04/22 06:05:23;;;;;;;32.87;17.53;;;8.90;99.90;;;;;;5013202;28;20213;-66
2022/04/22 06:10:31;;;;;;;32.37;17.97;;;9.00;99.90;;;;;;5014213;28;20186;-66
2022/04/22 06:10:39;;;;;;;28.07;18.27;;;9.00;99.90;;;;;;4997807;28;20171;-75
2022/04/22 06:13:05;;;;;;;31.70;19.63;;;9.00;99.90;;;;;;5013613;28;20304;-64
2022/04/22 06:15:31;;;;;;;33.23;18.97;;;9.00;99.90;;;;;;5013149;28;20253;-63
2022/04/22 06:17:59;;;;;;;34.93;18.73;;;9.10;99.90;;;;;;5012829;28;20178;-64
2022/04/22 06:20:25;;;;;;;34.57;19.57;;;9.20;99.90;;;;;;5013431;28;20170;-64
2022/04/22 06:22:51;;;;;;;29.73;19.37;;;9.20;99.90;;;;;;5013338;28;20731;-63
2022/04/22 06:25:17;;;;;;;33.07;20.57;;;9.10;99.90;;;;;;5013187;28;20218;-64
2022/04/22 06:27:45;;;;;;;34.07;20.60;;;9.10;99.90;;;;;;5011897;28;20630;-63
2022/04/22 06:30:15;;;;;;;36.57;20.97;;;9.10;99.90;;;;;;5011568;28;20175;-63
2022/04/22 06:32:42;;;;;;;37.93;21.37;;;9.10;99.90;;;;;;5012978;28;20174;-64
2022/04/22 06:35:10;;;;;;;38.47;22.43;;;9.20;99.90;;;;;;5007922;28;20214;-64
2022/04/22 06:37:42;;;;;;;38.30;21.53;;;9.10;99.90;;;;;;5012840;28;20649;-64
2022/04/22 06:45:47;;;;;;;36.10;22.33;;;9.30;99.90;;;;;;5008963;28;20296;-62
2022/04/22 06:48:21;;;;;;;35.10;22.00;;;9.40;99.90;;;;;;5013273;28;20194;-62
2022/04/22 06:50:48;;;;;;;38.37;22.93;;;9.50;99.90;;;;;;5007493;28;20179;-62
2022/04/22 06:53:16;;;;;;;39.23;23.97;;;9.50;99.90;;;;;;4993763;28;20172;-59
2022/04/22 06:55:43;;;;;;;36.77;23.30;;;9.60;99.90;;;;;;4999606;28;20197;-60
2022/04/22 06:58:14;;;;;;;40.57;24.37;;;9.60;99.90;;;;;;5012934;28;20241;-60
2022/04/22 07:00:41;;;;;;;36.23;23.97;;;9.60;99.90;;;;;;5012409;28;20166;-61
2022/04/22 07:03:08;;;;;;;35.10;23.53;;;9.70;99.90;;;;;;5012183;28;20185;-60
2022/04/22 07:05:35;;;;;;;39.40;24.60;;;9.70;99.90;;;;;;5012584;28;20616;-62
2022/04/22 07:08:03;;;;;;;42.63;25.53;;;9.80;99.90;;;;;;5012942;28;20653;-59
2022/04/22 07:10:30;;;;;;;41.43;25.43;;;9.90;99.90;;;;;;5013032;28;20189;-67
2022/04/22 07:12:57;;;;;;;42.23;26.37;;;10.00;99.90;;;;;;5012801;28;20185;-64
2022/04/22 07:15:24;;;;;;;45.60;26.00;;;10.20;99.90;;;;;;5012295;28;20530;-63
2022/04/22 07:17:50;;;;;;;39.77;25.33;;;10.30;99.90;;;;;;5012675;28;20529;-63
2022/04/22 07:20:17;;;;;;;39.53;24.17;;;10.40;99.90;;;;;;5012705;28;20182;-63
2022/04/22 07:22:44;;;;;;;38.77;24.90;;;10.30;99.90;;;;;;5012490;28;20296;-63
2022/04/22 07:25:10;;;;;;;38.20;24.37;;;10.50;99.90;;;;;;5012647;28;20280;-63
2022/04/22 07:27:41;;;;;;;40.67;24.43;;;10.60;99.90;;;;;;5012659;28;20171;-63
2022/04/22 07:30:11;;;;;;;40.70;25.70;;;10.70;99.90;;;;;;5012377;28;20186;-63
2022/04/22 07:32:38;;;;;;;45.77;25.20;;;10.60;99.90;;;;;;5012506;28;20663;-64
2022/04/22 07:35:13;;;;;;;42.50;26.20;;;10.50;99.90;;;;;;5011484;28;20273;-64
2022/04/22 07:37:39;;;;;;;40.80;25.33;;;10.40;99.90;;;;;;5012176;28;20173;-64
2022/04/22 07:40:06;;;;;;;41.97;26.17;;;10.40;99.90;;;;;;5006600;28;20191;-64
2022/04/22 07:42:34;;;;;;;42.57;26.00;;;10.50;99.90;;;;;;5010917;28;20258;-64
2022/04/22 07:47:49;;;;;;;41.17;25.20;;;10.50;99.90;;;;;;4992712;28;20317;-63
2022/04/22 07:50:17;;;;;;;40.10;25.63;;;10.60;99.90;;;;;;4992493;28;20179;-65
2022/04/22 07:52:47;;;;;;;38.13;25.20;;;10.80;99.90;;;;;;5003903;28;20202;-65
2022/04/22 07:55:14;;;;;;;41.90;25.93;;;11.30;99.90;;;;;;5012464;28;20253;-65
2022/04/22 07:57:43;;;;;;;39.90;24.67;;;10.80;99.90;;;;;;5012183;28;20700;-65
2022/04/22 08:00:10;;;;;;;43.37;25.63;;;10.60;99.90;;;;;;5011977;28;20182;-65
2022/04/22 08:02:40;;;;;;;38.80;24.57;;;10.70;99.90;;;;;;5011459;28;20227;-66
2022/04/22 08:05:11;;;;;;;40.10;24.97;;;10.50;99.90;;;;;;5010797;28;20197;-66
2022/04/22 08:07:38;;;;;;;44.83;25.67;;;10.50;99.90;;;;;;5011864;28;20714;-65
2022/04/22 08:10:05;;;;;;;39.53;23.47;;;10.70;99.90;;;;;;5011671;28;20209;-63
2022/04/22 08:12:31;;;;;;;42.80;24.83;;;10.80;99.90;;;;;;5011779;28;20707;-59
2022/04/22 08:14:58;;;;;;;40.20;24.20;;;10.90;99.90;;;;;;5010568;28;20197;-60
2022/04/22 08:17:24;;;;;;;41.43;23.87;;;10.90;99.90;;;;;;5009896;28;20237;-60
2022/04/22 08:19:49;;;;;;;44.80;24.67;;;11.00;99.90;;;;;;5011077;28;20166;-62
2022/04/22 08:22:15;;;;;;;40.23;22.77;;;11.10;99.90;;;;;;5008410;28;20534;-59
2022/04/22 08:24:41;;;;;;;40.03;23.60;;;11.30;99.90;;;;;;4999315;28;20681;-59
2022/04/22 08:27:07;;;;;;;38.53;22.27;;;11.40;99.90;;;;;;4996378;28;20242;-60
2022/04/22 08:29:33;;;;;;;35.70;21.63;;;11.50;99.90;;;;;;4991513;28;20690;-62
2022/04/22 08:31:59;;;;;;;39.40;22.30;;;11.60;99.90;;;;;;4991335;28;20193;-69
2022/04/22 08:34:24;;;;;;;32.57;21.17;;;11.60;99.90;;;;;;5005651;28;20183;-67
2022/04/22 08:36:50;;;;;;;35.70;21.07;;;11.60;99.90;;;;;;5002945;28;20715;-59
2022/04/22 08:39:16;;;;;;;34.00;20.80;;;11.70;99.90;;;;;;5007716;28;20784;-58
2022/04/22 08:41:42;;;;;;;35.30;20.53;;;11.80;99.90;;;;;;5011299;28;20179;-58
2022/04/22 08:44:12;;;;;;;41.93;19.67;;;11.80;99.90;;;;;;5000312;28;20183;-59
2022/04/22 08:52:09;;;;;;;30.50;18.58;;;12.50;99.90;;;;;;5011557;28;20241;-58
2022/04/22 08:54:39;;;;;;;31.02;18.50;;;12.40;99.90;;;;;;5007179;28;20259;-58
2022/04/22 08:57:06;;;;;;;27.80;18.17;;;12.20;99.90;;;;;;4991560;28;20202;-58
2022/04/22 08:59:31;;;;;;;28.48;16.48;;;12.20;99.90;;;;;;4996446;28;20174;-58
2022/04/22 09:01:57;;;;;;;36.90;17.40;;;12.30;99.90;;;;;;5005225;28;20170;-58
2022/04/22 09:04:23;;;;;;;31.40;16.67;;;12.30;99.90;;;;;;5011165;28;20175;-58
2022/04/22 09:06:50;;;;;;;28.27;17.00;;;12.50;99.90;;;;;;5004371;28;20430;-58
2022/04/22 09:09:18;;;;;;;31.88;17.80;;;12.60;99.90;;;;;;4994459;28;20186;-58
2022/04/22 09:11:44;;;;;;;40.13;17.33;;;12.60;99.90;;;;;;4991966;28;20615;-58
2022/04/22 09:14:15;;;;;;;31.27;17.43;;;12.60;99.90;;;;;;5004794;28;20186;-58
2022/04/22 09:16:41;;;;;;;29.30;16.58;;;12.50;99.90;;;;;;5010582;28;20209;-58
2022/04/22 09:19:07;;;;;;;28.20;15.95;;;12.70;99.90;;;;;;5011005;28;20178;-58
2022/04/22 09:21:33;;;;;;;30.93;16.40;;;12.80;99.90;;;;;;5007449;28;20212;-59
2022/04/22 09:24:13;;;;;;;28.98;16.67;;;12.90;99.90;;;;;;5006419;28;20225;-58
2022/04/22 09:26:39;;;;;;;35.33;17.17;;;12.90;99.90;;;;;;5010743;28;20210;-59
2022/04/22 09:29:06;;;;;;;31.90;16.52;;;12.90;99.90;;;;;;5014829;28;20182;-58
2022/04/22 09:31:46;;;;;;;27.58;15.55;;;13.00;99.90;;;;;;5014887;28;20274;-58
2022/04/22 09:34:12;;;;;;;25.02;14.32;;;13.00;99.90;;;;;;4994959;28;20175;-59
2022/04/22 09:44:56;;;;;;;22.10;14.25;;;13.70;99.90;;;;;;4995130;28;20597;-59
2022/04/22 09:47:26;;;;;;;29.80;14.70;;;13.90;99.90;;;;;;5008281;28;20181;-59
2022/04/22 09:49:52;;;;;;;26.50;13.95;;;13.80;99.90;;;;;;5013945;28;20177;-59
2022/04/22 09:52:28;;;;;;;28.45;14.02;;;13.80;99.90;;;;;;5011953;28;20625;-59
2022/04/22 09:55:06;;;;;;;31.17;13.35;;;13.80;99.90;;;;;;5014370;28;20241;-59
2022/04/22 09:57:53;;;;;;;26.90;12.52;;;13.90;99.90;;;;;;5013832;28;20171;-58
2022/04/22 10:00:23;;;;;;;21.95;12.95;;;13.90;99.90;;;;;;5013984;28;20536;-59
2022/04/22 10:02:50;;;;;;;25.75;13.00;;;13.70;99.90;;;;;;5014137;28;20645;-58
2022/04/22 10:05:21;;;;;;;30.33;12.73;;;13.40;99.90;;;;;;5014225;28;20669;-58
2022/04/22 10:07:55;;;;;;;23.52;12.57;;;13.30;99.90;;;;;;5014217;28;20253;-58
2022/04/22 10:10:27;;;;;;;25.85;12.20;;;13.30;99.90;;;;;;5014024;28;20190;-58
2022/04/22 10:12:57;;;;;;;24.50;11.95;;;13.20;99.90;;;;;;5014064;28;20199;-58
2022/04/22 10:15:30;;;;;;;20.60;10.68;;;13.20;99.90;;;;;;5013930;28;20563;-58
2022/04/22 10:17:57;;;;;;;19.90;11.10;;;13.40;99.90;;;;;;5013983;28;20210;-57
2022/04/22 10:20:26;;;;;;;39.30;11.20;;;13.50;99.90;;;;;;5013923;28;20166;-57
2022/04/22 10:22:53;;;;;;;25.20;10.95;;;13.80;99.90;;;;;;5013646;28;20697;-57
2022/04/22 10:25:19;;;;;;;20.38;10.18;;;14.10;99.90;;;;;;5012547;28;20205;-57
2022/04/22 10:27:46;;;;;;;19.65;9.82;;;14.50;99.90;;;;;;5011966;28;20186;-57
2022/04/22 10:30:14;;;;;;;35.40;10.90;;;15.00;99.90;;;;;;5011706;28;20166;-57
2022/04/22 10:32:41;;;;;;;27.05;10.00;;;15.80;99.90;;;;;;5011710;28;20179;-57
2022/04/22 10:35:09;;;;;;;19.45;9.30;;;16.60;99.90;;;;;;5011692;28;20653;-57
2022/04/22 10:37:38;;;;;;;21.45;9.70;;;17.60;99.90;;;;;;5011646;28;20699;-57
2022/04/22 10:40:06;;;;;;;21.40;9.25;;;18.30;99.90;;;;;;5011783;28;20174;-57
2022/04/22 10:42:37;;;;;;;20.45;8.40;;;18.20;99.90;;;;;;5013616;28;20171;-57
2022/04/22 10:47:54;;;;;;;18.50;8.30;;;17.10;99.90;;;;;;5013361;28;20253;-57
2022/04/22 10:50:35;;;;;;;24.15;8.70;;;16.70;99.90;;;;;;5013531;28;20187;-57
2022/04/22 10:53:05;;;;;;;18.58;8.15;;;16.00;99.90;;;;;;5012801;28;20192;-57
2022/04/22 10:55:37;;;;;;;25.58;8.77;;;15.20;99.90;;;;;;5013271;28;20191;-57
2022/04/22 10:58:20;;;;;;;24.15;8.95;;;14.80;99.90;;;;;;5012935;28;20178;-57
2022/04/22 11:00:52;;;;;;;18.63;8.77;;;14.60;99.90;;;;;;5013291;28;20175;-57
2022/04/22 11:03:19;;;;;;;17.30;8.95;;;14.40;99.90;;;;;;5012956;28;20166;-57
2022/04/22 11:05:47;;;;;;;24.55;10.10;;;14.20;99.90;;;;;;5013139;28;20217;-57
2022/04/22 11:08:24;;;;;;;20.40;9.32;;;14.00;99.90;;;;;;5012991;28;20181;-58
2022/04/22 11:10:51;;;;;;;21.27;9.65;;;13.90;99.90;;;;;;5012963;28;20182;-58
2022/04/22 11:13:43;;;;;;;20.40;9.10;;;13.80;99.90;;;;;;5012166;28;20240;-57
2022/04/22 11:16:22;;;;;;;22.23;9.18;;;13.70;99.90;;;;;;5010936;28;20229;-58
2022/04/22 11:19:36;;;;;;;21.20;10.15;;;13.80;99.90;;;;;;5010857;28;20205;-57
2022/04/22 11:22:05;;;;;;;16.35;9.05;;;14.00;99.90;;;;;;4993993;28;20186;-57
2022/04/22 11:24:33;;;;;;;23.33;9.52;;;14.00;99.90;;;;;;5010873;28;20237;-57
2022/04/22 11:27:03;;;;;;;17.88;8.45;;;14.20;99.90;;;;;;5011091;28;20214;-57
2022/04/22 11:29:29;;;;;;;19.17;8.95;;;14.40;99.90;;;;;;5012069;28;21455;-57
2022/04/22 11:32:11;;;;;;;16.33;8.90;;;14.40;99.90;;;;;;5012418;28;20182;-58
2022/04/22 11:34:59;;;;;;;24.02;8.23;;;14.40;99.90;;;;;;5012473;28;20170;-57
2022/04/22 11:37:25;;;;;;;20.23;9.25;;;14.40;99.90;;;;;;5012527;28;20256;-57
2022/04/22 11:39:51;;;;;;;20.52;9.32;;;14.40;99.90;;;;;;5012406;28;20231;-57
2022/04/22 11:42:18;;;;;;;13.90;8.02;;;14.40;99.90;;;;;;5012454;28;20210;-57
2022/04/22 11:45:04;;;;;;;18.58;8.88;;;14.40;99.90;;;;;;5012462;28;20219;-57
2022/04/22 11:47:30;;;;;;;20.08;8.35;;;14.30;99.90;;;;;;5012382;28;20182;-57
2022/04/22 11:49:56;;;;;;;18.75;9.20;;;14.40;99.90;;;;;;5012072;28;20253;-57
2022/04/22 11:52:23;;;;;;;21.67;9.23;;;14.50;99.90;;;;;;5011296;28;20167;-57
2022/04/22 11:54:49;;;;;;;16.48;8.00;;;14.50;99.90;;;;;;5010671;28;20167;-57
2022/04/22 11:57:19;;;;;;;19.75;8.75;;;14.50;99.90;;;;;;5012061;28;20181;-57
2022/04/22 12:05:32;;;;;;;17.85;8.23;;;14.60;99.90;;;;;;5012165;28;20175;-57
2022/04/22 12:05:33;;;;;;;18.27;8.75;;;14.60;99.90;;;;;;5011888;28;20275;-57
2022/04/22 12:08:07;;;;;;;15.35;7.90;;;14.90;99.90;;;;;;5012028;28;20253;-57
2022/04/22 12:10:34;;;;;;;17.90;8.70;;;15.10;99.90;;;;;;5011867;28;20182;-57
2022/04/22 12:13:02;;;;;;;19.17;8.63;;;15.20;99.90;;;;;;5011417;28;20190;-57
2022/04/22 12:15:29;;;;;;;18.40;9.10;;;15.30;99.90;;;;;;5010608;28;20224;-57
2022/04/22 12:17:55;;;;;;;16.50;8.38;;;15.30;99.90;;;;;;5011801;28;20167;-57
2022/04/22 12:20:21;;;;;;;21.40;8.32;;;15.30;99.90;;;;;;5011778;28;20178;-58
2022/04/22 12:22:49;;;;;;;21.95;8.30;;;15.10;99.90;;;;;;5011496;28;20222;-57
2022/04/22 12:25:19;;;;;;;23.17;9.38;;;15.10;99.90;;;;;;5010184;28;20641;-57
2022/04/22 12:28:13;;;;;;;21.40;8.77;;;15.00;99.90;;;;;;5008024;28;20175;-57
2022/04/22 12:30:42;;;;;;;22.98;8.90;;;14.90;99.90;;;;;;5011290;28;20179;-58
2022/04/22 12:33:17;;;;;;;20.20;9.60;;;14.80;99.90;;;;;;5011520;28;20265;-58
2022/04/22 12:35:45;;;;;;;21.20;8.77;;;14.70;99.90;;;;;;5011078;28;20174;-58
2022/04/22 12:38:13;;;;;;;22.65;8.68;;;14.60;99.90;;;;;;5010231;28;20249;-58
2022/04/22 12:40:46;;;;;;;17.92;8.25;;;14.90;99.90;;;;;;5011308;28;20194;-58
2022/04/22 12:43:27;;;;;;;19.25;8.88;;;14.10;99.90;;;;;;5010868;28;20166;-57
2022/04/22 12:52:08;;;;;;;25.08;9.75;;;13.90;99.90;;;;;;5011248;28;20189;-58
2022/04/22 12:54:35;;;;;;;18.02;9.00;;;13.90;99.90;;;;;;5011229;28;20223;-59
2022/04/22 12:57:01;;;;;;;19.92;9.50;;;14.10;99.90;;;;;;5011236;28;20167;-59
2022/04/22 12:59:46;;;;;;;20.48;9.77;;;14.30;99.90;;;;;;5010468;28;20171;-58
2022/04/22 13:02:14;;;;;;;17.35;8.15;;;14.70;99.90;;;;;;5011837;28;20186;-59
2022/04/22 13:04:53;;;;;;;19.88;9.57;;;15.00;99.90;;;;;;5015427;28;20182;-57
2022/04/22 13:07:19;;;;;;;20.08;9.50;;;15.10;99.90;;;;;;5015019;28;20512;-57
2022/04/22 13:09:48;;;;;;;21.05;8.90;;;15.20;99.90;;;;;;5014744;28;20177;-58
2022/04/22 13:12:14;;;;;;;18.63;9.02;;;15.40;99.90;;;;;;5015305;28;20190;-59
2022/04/22 13:14:40;;;;;;;18.00;8.70;;;15.60;99.90;;;;;;5015114;28;20671;-57
2022/04/22 13:17:06;;;;;;;20.33;8.65;;;15.80;99.90;;;;;;5015025;28;20174;-57
2022/04/22 13:19:33;;;;;;;12.98;7.65;;;15.80;99.90;;;;;;5014552;28;20668;-58
2022/04/22 13:21:58;;;;;;;22.15;8.60;;;16.00;99.90;;;;;;5007330;28;20189;-58
2022/04/22 13:24:24;;;;;;;22.13;8.63;;;16.00;99.90;;;;;;5011526;28;20222;-58
2022/04/22 13:26:50;;;;;;;17.15;7.53;;;16.20;99.90;;;;;;5014355;28;20221;-58
2022/04/22 13:29:16;;;;;;;15.73;7.15;;;16.20;99.90;;;;;;5005099;28;20218;-58
2022/04/22 13:31:42;;;;;;;19.45;7.63;;;16.30;99.90;;;;;;4994331;28;20665;-58
2022/04/22 13:34:07;;;;;;;13.55;7.18;;;16.50;99.90;;;;;;4994977;28;20230;-58
2022/04/22 13:36:36;;;;;;;17.77;6.80;;;16.80;99.90;;;;;;5010610;28;20185;-58
2022/04/22 13:39:03;;;;;;;15.13;6.82;;;16.70;99.90;;;;;;5014456;28;20229;-57
2022/04/22 13:41:29;;;;;;;17.20;6.10;;;16.50;99.90;;;;;;5014743;28;20177;-58
2022/04/22 13:43:54;;;;;;;16.23;6.28;;;16.60;99.90;;;;;;5013933;28;20544;-58
2022/04/22 13:54:34;;;;;;;10.00;5.20;;;16.10;99.90;;;;;;5009721;28;20580;-62
2022/04/22 13:57:01;;;;;;;14.13;6.07;;;16.00;99.90;;;;;;5014110;28;20174;-61
2022/04/22 13:59:26;;;;;;;15.18;5.40;;;15.90;99.90;;;;;;5013382;28;20645;-62